createdAt,value
2022-08-11T00:02:29.713Z,8.60
2022-08-11T00:05:05.363Z,8.60
2022-08-11T00:07:34.452Z,8.50
2022-08-11T00:10:03.416Z,8.50
2022-08-11T00:12:31.937Z,8.50
2022-08-11T00:15:02.321Z,8.50
2022-08-11T00:17:32.996Z,8.50
2022-08-11T00:20:15.908Z,8.50
2022-08-11T00:22:49.936Z,8.40
2022-08-11T00:25:20.203Z,8.40
2022-08-11T00:27:49.465Z,8.40
2022-08-11T00:30:18.414Z,8.40
2022-08-11T00:32:56.577Z,8.50
2022-08-11T00:35:55.613Z,8.30
2022-08-11T00:38:26.456Z,8.30
2022-08-11T00:41:00.644Z,8.20
2022-08-11T00:43:48.417Z,8.20
2022-08-11T00:46:30.375Z,8.20
2022-08-11T00:49:14.517Z,8.10
2022-08-11T00:52:04.514Z,8.00
2022-08-11T00:55:09.656Z,8.00
2022-08-11T00:58:13.381Z,8.00
2022-08-11T01:01:09.335Z,8.00
2022-08-11T01:04:17.633Z,7.90
2022-08-11T01:07:16.545Z,7.80
2022-08-11T01:10:24.434Z,7.80
2022-08-11T01:13:08.432Z,7.80
2022-08-11T01:16:05.051Z,7.80
2022-08-11T01:19:22.069Z,7.80
2022-08-11T01:22:29.397Z,7.80
2022-08-11T01:25:57.338Z,7.70
2022-08-11T01:29:04.367Z,7.60
2022-08-11T01:31:57.079Z,7.60
2022-08-11T01:35:14.930Z,7.50
2022-08-11T01:38:21.980Z,7.40
2022-08-11T01:41:16.163Z,7.40
2022-08-11T01:44:31.615Z,7.40
2022-08-11T01:47:35.640Z,7.40
2022-08-11T01:50:13.701Z,7.20
2022-08-11T01:52:55.166Z,7.20
2022-08-11T01:55:33.478Z,7.10
2022-08-11T01:58:09.699Z,7.10
2022-08-11T02:00:49.676Z,7.10
2022-08-11T02:03:25.588Z,7.10
2022-08-11T02:06:01.595Z,7.10
2022-08-11T02:08:44.771Z,7.10
2022-08-11T02:11:37.573Z,7.10
2022-08-11T02:14:22.603Z,7.10
2022-08-11T02:17:03.532Z,7.10
2022-08-11T02:20:01.400Z,7.10
2022-08-11T02:22:54.313Z,7.10
2022-08-11T02:25:28.463Z,7.00
2022-08-11T02:28:04.864Z,7.00
2022-08-11T02:30:39.760Z,6.90
2022-08-11T02:33:24.839Z,7.00
2022-08-11T02:36:09.052Z,7.00
2022-08-11T02:38:50.036Z,7.00
2022-08-11T02:41:43.923Z,7.00
2022-08-11T02:44:25.884Z,7.00
2022-08-11T02:47:24.403Z,7.00
2022-08-11T02:50:07.177Z,7.00
2022-08-11T02:52:45.388Z,7.00
2022-08-11T02:55:48.691Z,7.00
2022-08-11T02:58:15.771Z,7.00
2022-08-11T03:00:51.482Z,7.00
2022-08-11T03:03:25.704Z,7.00
2022-08-11T03:06:10.617Z,7.00
2022-08-11T03:08:52.609Z,6.90
2022-08-11T03:11:57.832Z,6.90
2022-08-11T03:14:49.826Z,6.90
2022-08-11T03:17:29.624Z,6.80
2022-08-11T03:20:12.356Z,6.80
2022-08-11T03:22:50.921Z,6.70
2022-08-11T03:25:31.884Z,6.70
2022-08-11T03:28:10.692Z,6.70
2022-08-11T03:30:47.165Z,6.80
2022-08-11T03:33:41.349Z,6.90
2022-08-11T03:36:33.298Z,7.10
2022-08-11T03:39:30.113Z,7.20
2022-08-11T03:42:10.290Z,7.10
2022-08-11T03:44:53.483Z,7.10
2022-08-11T03:47:40.366Z,7.10
2022-08-11T03:50:33.557Z,7.20
2022-08-11T03:53:16.339Z,7.20
2022-08-11T03:56:19.155Z,7.20
2022-08-11T03:59:21.062Z,7.20
2022-08-11T04:02:16.166Z,7.10
2022-08-11T04:05:28.019Z,7.10
2022-08-11T04:08:33.915Z,7.20
2022-08-11T04:11:26.725Z,7.70
2022-08-11T04:14:43.898Z,7.90
2022-08-11T04:17:39.258Z,7.90
2022-08-11T04:20:30.117Z,8.00
2022-08-11T04:24:36.678Z,8.00
2022-08-11T04:26:37.262Z,8.40
2022-08-11T04:29:25.733Z,9.50
2022-08-11T04:32:22.226Z,10.70
2022-08-11T04:35:09.465Z,12.00
2022-08-11T04:37:57.193Z,13.10
2022-08-11T04:41:14.475Z,13.90
2022-08-11T04:44:31.738Z,14.50
2022-08-11T04:48:01.496Z,15.20
2022-08-11T04:51:16.512Z,15.10
2022-08-11T04:54:16.136Z,15.20
2022-08-11T04:57:06.035Z,15.40
2022-08-11T05:00:20.867Z,15.40
2022-08-11T05:03:24.934Z,15.40
2022-08-11T05:06:12.738Z,16.10
2022-08-11T05:09:12.854Z,17.60
2022-08-11T05:12:07.555Z,18.60
2022-08-11T05:14:58.114Z,19.30
2022-08-11T05:17:56.804Z,19.40
2022-08-11T05:20:45.177Z,19.50
2022-08-11T05:23:31.999Z,19.60
2022-08-11T05:26:47.981Z,19.30
2022-08-11T05:29:54.656Z,19.40
2022-08-11T05:32:42.549Z,19.30
2022-08-11T05:35:18.512Z,18.90
2022-08-11T05:38:19.631Z,19.10
2022-08-11T05:41:10.731Z,19.10
2022-08-11T05:44:19.737Z,19.40
2022-08-11T05:47:09.856Z,20.00
2022-08-11T05:49:56.717Z,20.50
2022-08-11T05:52:46.810Z,20.90
2022-08-11T05:55:35.156Z,21.30
2022-08-11T05:58:05.712Z,22.00
2022-08-11T06:00:43.538Z,22.40
2022-08-11T06:03:21.587Z,23.20
2022-08-11T06:05:51.776Z,23.70
2022-08-11T06:08:31.354Z,23.90
2022-08-11T06:11:06.294Z,24.80
2022-08-11T06:13:35.859Z,25.10
2022-08-11T06:16:07.036Z,25.80
2022-08-11T06:18:37.918Z,26.50
2022-08-11T06:21:12.276Z,26.80
2022-08-11T06:23:42.577Z,27.10
2022-08-11T06:26:11.925Z,27.30
2022-08-11T06:28:45.081Z,27.60
2022-08-11T06:31:15.151Z,27.10
2022-08-11T06:33:56.680Z,26.60
2022-08-11T06:36:34.363Z,26.10
2022-08-11T06:39:15.612Z,25.10
2022-08-11T06:41:49.611Z,24.10
2022-08-11T06:44:25.278Z,23.40
2022-08-11T06:46:56.148Z,23.30
2022-08-11T06:49:52.982Z,23.00
2022-08-11T06:52:45.235Z,22.90
2022-08-11T06:55:55.747Z,23.00
2022-08-11T06:58:44.727Z,22.70
2022-08-11T07:01:16.808Z,22.00
2022-08-11T07:03:48.941Z,21.60
2022-08-11T07:06:35.964Z,21.60
2022-08-11T07:10:02.604Z,21.40
2022-08-11T07:12:57.758Z,21.50
2022-08-11T07:16:11.318Z,21.90
2022-08-11T07:18:54.452Z,21.90
2022-08-11T07:22:02.390Z,22.00
2022-08-11T07:25:02.691Z,22.00
2022-08-11T07:27:55.532Z,22.10
2022-08-11T07:30:26.905Z,22.00
2022-08-11T07:32:57.857Z,21.80
2022-08-11T07:35:32.454Z,21.80
2022-08-11T07:38:07.136Z,21.70
2022-08-11T07:40:37.445Z,21.50
2022-08-11T07:43:08.030Z,21.40
2022-08-11T07:45:54.731Z,21.40
2022-08-11T07:48:40.476Z,21.40
2022-08-11T07:51:26.668Z,21.60
2022-08-11T07:53:58.318Z,21.50
2022-08-11T08:01:21.753Z,21.60
2022-08-11T08:04:09.496Z,21.70
2022-08-11T08:06:56.359Z,21.80
2022-08-11T08:09:43.920Z,21.80
2022-08-11T08:12:31.697Z,21.90
2022-08-11T08:15:18.078Z,21.80
2022-08-11T08:18:09.629Z,21.90
2022-08-11T08:20:45.431Z,22.00
2022-08-11T08:23:14.100Z,22.10
2022-08-11T08:25:46.089Z,22.10
2022-08-11T08:28:17.072Z,22.10
2022-08-11T08:30:47.944Z,22.00
2022-08-11T08:33:20.319Z,22.10
2022-08-11T08:35:54.759Z,22.30
2022-08-11T08:38:25.071Z,22.30
2022-08-11T08:40:56.418Z,22.20
2022-08-11T08:43:25.440Z,22.20
2022-08-11T08:45:57.025Z,22.10
2022-08-11T08:48:27.128Z,22.20
2022-08-11T08:51:19.639Z,22.30
2022-08-11T08:53:56.474Z,22.50
2022-08-11T08:56:30.191Z,22.50
2022-08-11T08:59:02.003Z,22.50
2022-08-11T09:01:33.044Z,22.40
2022-08-11T09:04:09.164Z,22.40
2022-08-11T09:06:42.940Z,22.50
2022-08-11T09:09:13.262Z,22.50
2022-08-11T09:11:54.379Z,22.60
2022-08-11T09:14:25.101Z,22.70
2022-08-11T09:16:54.102Z,22.90
2022-08-11T09:19:22.882Z,23.00
2022-08-11T09:22:13.385Z,23.10
2022-08-11T09:24:59.926Z,23.10
2022-08-11T09:27:29.757Z,23.10
2022-08-11T09:29:58.205Z,23.00
2022-08-11T09:32:28.946Z,23.00
2022-08-11T09:34:57.933Z,22.90
2022-08-11T09:37:54.842Z,22.90
2022-08-11T09:40:32.427Z,23.00
2022-08-11T09:43:22.864Z,23.10
2022-08-11T09:45:53.212Z,23.10
2022-08-11T09:48:22.807Z,23.20
2022-08-11T09:50:53.985Z,23.30
2022-08-11T09:53:36.553Z,23.40
2022-08-11T09:56:28.666Z,23.50
2022-08-11T09:58:59.076Z,23.60
2022-08-11T10:01:31.258Z,23.70
2022-08-11T10:04:02.618Z,23.70
2022-08-11T10:06:54.097Z,23.90
2022-08-11T10:09:25.486Z,24.00
2022-08-11T10:11:58.628Z,24.20
2022-08-11T10:14:48.487Z,24.20
2022-08-11T10:17:19.745Z,24.10
2022-08-11T10:20:04.838Z,24.10
2022-08-11T10:22:53.481Z,24.10
2022-08-11T10:25:40.408Z,24.10
2022-08-11T10:28:32.744Z,24.20
2022-08-11T10:31:18.488Z,24.20
2022-08-11T10:34:04.111Z,24.30
2022-08-11T10:36:34.847Z,24.30
2022-08-11T10:39:05.385Z,24.40
2022-08-11T10:42:06.758Z,24.50
2022-08-11T10:44:40.216Z,24.50
2022-08-11T10:47:30.971Z,24.60
2022-08-11T10:50:17.498Z,24.70
2022-08-11T10:53:06.466Z,24.70
2022-08-11T10:55:52.663Z,24.70
2022-08-11T10:58:39.861Z,24.70
2022-08-11T11:01:08.688Z,24.80
2022-08-11T11:03:38.995Z,24.90
2022-08-11T11:06:28.870Z,25.20
2022-08-11T11:09:05.370Z,25.20
2022-08-11T11:11:57.255Z,25.10
2022-08-11T11:14:50.779Z,25.00
2022-08-11T11:17:45.997Z,25.00
2022-08-11T11:20:37.832Z,25.10
2022-08-11T11:23:11.189Z,25.10
2022-08-11T11:26:27.665Z,25.10
2022-08-11T11:29:45.482Z,25.00
2022-08-11T11:32:25.053Z,25.10
2022-08-11T11:35:09.853Z,25.20
2022-08-11T11:37:40.670Z,25.40
2022-08-11T11:40:28.769Z,25.40
2022-08-11T11:43:01.339Z,25.50
2022-08-11T11:45:29.959Z,25.60
2022-08-11T11:48:00.613Z,25.60
2022-08-11T11:50:33.138Z,25.70
2022-08-11T11:53:06.345Z,25.70
2022-08-11T11:55:35.334Z,25.70
2022-08-11T11:58:22.986Z,25.80
2022-08-11T12:01:09.895Z,25.80
2022-08-11T12:03:38.935Z,25.90
2022-08-11T12:06:09.124Z,25.90
2022-08-11T12:08:39.231Z,26.00
2022-08-11T12:11:27.694Z,26.10
2022-08-11T12:13:58.488Z,26.00
2022-08-11T12:16:35.837Z,25.80
2022-08-11T12:19:08.310Z,25.80
2022-08-11T12:21:37.624Z,26.00
2022-08-11T12:24:29.390Z,26.10
2022-08-11T12:27:17.677Z,26.20
2022-08-11T12:29:54.517Z,26.20
2022-08-11T12:32:26.626Z,26.20
2022-08-11T12:34:56.829Z,26.20
2022-08-11T12:37:30.741Z,26.30
2022-08-11T12:40:42.134Z,26.40
2022-08-11T12:43:38.626Z,26.40
2022-08-11T12:46:11.046Z,26.20
2022-08-11T12:49:03.162Z,26.30
2022-08-11T12:52:11.338Z,26.40
2022-08-11T12:54:51.778Z,26.60
2022-08-11T12:57:51.291Z,26.60
2022-08-11T13:00:38.274Z,26.40
2022-08-11T13:03:26.704Z,26.50
2022-08-11T13:05:57.333Z,26.60
2022-08-11T13:08:27.858Z,26.60
2022-08-11T13:11:16.018Z,26.40
2022-08-11T13:13:52.430Z,26.50
2022-08-11T13:16:25.583Z,26.60
2022-08-11T13:18:54.391Z,26.70
2022-08-11T13:21:23.975Z,26.70
2022-08-11T13:24:01.656Z,26.80
2022-08-11T13:26:36.960Z,26.90
2022-08-11T13:29:18.517Z,26.90
2022-08-11T13:31:47.777Z,26.80
2022-08-11T13:34:17.010Z,26.70
2022-08-11T13:36:45.452Z,26.50
2022-08-11T13:39:14.970Z,26.60
2022-08-11T13:41:47.700Z,26.70
2022-08-11T13:44:24.666Z,26.70
2022-08-11T13:46:54.159Z,26.70
2022-08-11T13:49:23.084Z,26.60
2022-08-11T13:51:53.609Z,26.40
2022-08-11T13:54:25.072Z,26.20
2022-08-11T13:56:56.136Z,26.20
2022-08-11T13:59:30.216Z,26.40
2022-08-11T14:02:21.920Z,26.40
2022-08-11T14:04:56.311Z,26.30
2022-08-11T14:07:26.964Z,26.60
2022-08-11T14:09:59.169Z,26.60
2022-08-11T14:12:48.327Z,26.30
2022-08-11T14:15:21.495Z,26.40
2022-08-11T14:17:53.931Z,26.60
2022-08-11T14:20:40.002Z,26.60
2022-08-11T14:23:12.412Z,26.50
2022-08-11T14:26:03.021Z,26.60
2022-08-11T14:28:39.995Z,26.50
2022-08-11T14:31:15.402Z,26.60
2022-08-11T14:34:00.575Z,26.70
2022-08-11T14:36:34.038Z,26.50
2022-08-11T14:39:06.857Z,26.60
2022-08-11T14:42:11.029Z,26.60
2022-08-11T14:45:01.279Z,26.60
2022-08-11T14:47:33.622Z,26.40
2022-08-11T14:50:11.700Z,26.30
2022-08-11T14:52:46.787Z,26.00
2022-08-11T14:55:33.656Z,25.80
2022-08-11T14:58:03.400Z,25.80
2022-08-11T15:00:34.227Z,26.00
2022-08-11T15:03:11.279Z,26.10
2022-08-11T15:05:56.765Z,26.10
2022-08-11T15:08:42.282Z,25.80
2022-08-11T15:11:32.290Z,25.90
2022-08-11T15:14:01.802Z,25.90
2022-08-11T15:16:48.615Z,25.80
2022-08-11T15:19:21.167Z,25.60
2022-08-11T15:22:07.550Z,25.60
2022-08-11T15:24:36.989Z,25.50
2022-08-11T15:30:33.381Z,25.20
2022-08-11T15:33:24.233Z,25.30
2022-08-11T15:36:13.513Z,25.10
2022-08-11T15:38:45.960Z,24.90
2022-08-11T15:41:36.534Z,24.70
2022-08-11T15:44:51.229Z,24.60
2022-08-11T15:47:18.353Z,24.60
2022-08-11T15:50:10.927Z,24.70
2022-08-11T15:52:46.686Z,24.70
2022-08-11T15:55:16.456Z,24.70
2022-08-11T15:58:03.249Z,24.60
2022-08-11T16:00:49.172Z,24.60
2022-08-11T16:04:08.221Z,24.60
2022-08-11T16:06:46.302Z,24.50
2022-08-11T16:09:21.584Z,24.40
2022-08-11T16:11:50.909Z,24.30
2022-08-11T16:14:37.583Z,24.30
2022-08-11T16:17:08.121Z,24.20
2022-08-11T16:19:38.002Z,24.20
2022-08-11T16:22:10.234Z,24.10
2022-08-11T16:27:06.891Z,24.00
2022-08-11T16:27:36.295Z,23.90
2022-08-11T16:30:06.937Z,23.90
2022-08-11T16:32:37.832Z,23.90
2022-08-11T16:35:27.691Z,23.90
2022-08-11T16:38:15.601Z,23.90
2022-08-11T16:40:47.925Z,23.80
2022-08-11T16:43:36.903Z,23.70
2022-08-11T16:46:32.654Z,23.80
2022-08-11T16:49:03.897Z,23.70
2022-08-11T16:51:32.963Z,23.50
2022-08-11T16:54:05.804Z,23.50
2022-08-11T16:56:39.765Z,23.60
2022-08-11T16:59:15.301Z,23.60
2022-08-11T17:01:47.450Z,23.60
2022-08-11T17:04:50.059Z,23.70
2022-08-11T17:07:42.041Z,23.80
2022-08-11T17:10:51.076Z,23.80
2022-08-11T17:13:30.283Z,23.70
2022-08-11T17:16:08.984Z,23.70
2022-08-11T17:18:44.813Z,23.70
2022-08-11T17:21:17.099Z,23.60
2022-08-11T17:23:50.383Z,23.50
2022-08-11T17:26:21.983Z,23.50
2022-08-11T17:28:56.373Z,23.40
2022-08-11T17:31:43.742Z,23.40
2022-08-11T17:34:31.703Z,23.30
2022-08-11T17:37:01.149Z,23.20
2022-08-11T17:39:32.631Z,23.20
2022-08-11T17:42:20.057Z,23.20
2022-08-11T17:45:08.068Z,23.20
2022-08-11T17:47:54.930Z,23.20
2022-08-11T17:50:23.939Z,23.20
2022-08-11T17:53:11.742Z,23.10
2022-08-11T17:55:58.427Z,23.10
2022-08-11T17:58:45.517Z,23.10
2022-08-11T18:01:16.724Z,23.10
2022-08-11T18:03:57.703Z,23.10
2022-08-11T18:06:34.474Z,23.10
2022-08-11T18:09:23.663Z,23.10
2022-08-11T18:12:12.766Z,23.10
2022-08-11T18:15:02.932Z,23.10
2022-08-11T18:17:50.591Z,22.80
2022-08-11T18:20:37.599Z,22.60
2022-08-11T18:23:45.904Z,22.30
2022-08-11T18:26:36.189Z,21.90
2022-08-11T18:29:24.562Z,21.60
2022-08-11T18:32:21.312Z,21.30
2022-08-11T18:35:13.582Z,21.10
2022-08-11T18:38:05.831Z,20.60
2022-08-11T18:40:54.224Z,20.20
2022-08-11T18:43:43.231Z,19.80
2022-08-11T18:46:31.627Z,19.60
2022-08-11T18:49:22.712Z,19.30
2022-08-11T18:52:12.447Z,18.90
2022-08-11T18:55:02.252Z,18.60
2022-08-11T18:57:54.024Z,18.40
2022-08-11T19:00:41.935Z,18.10
2022-08-11T19:03:29.719Z,17.90
2022-08-11T19:06:38.931Z,17.80
2022-08-11T19:09:31.701Z,17.50
2022-08-11T19:12:19.357Z,17.40
2022-08-11T19:15:06.912Z,17.20
2022-08-11T19:17:56.967Z,17.10
2022-08-11T19:20:44.784Z,16.80
2022-08-11T19:23:34.366Z,16.70
2022-08-11T19:26:23.175Z,16.50
2022-08-11T19:30:12.012Z,16.30
2022-08-11T19:32:18.060Z,16.10
2022-08-11T19:35:04.830Z,15.90
2022-08-11T19:37:51.720Z,15.80
2022-08-11T19:40:39.034Z,15.70
2022-08-11T19:43:28.255Z,15.50
2022-08-11T19:46:17.625Z,15.30
2022-08-11T19:49:08.011Z,15.20
2022-08-11T19:51:55.757Z,15.10
2022-08-11T19:54:44.846Z,14.90
2022-08-11T19:57:35.910Z,14.70
2022-08-11T20:00:30.516Z,14.60
2022-08-11T20:03:17.374Z,14.60
2022-08-11T20:06:04.556Z,14.40
2022-08-11T20:08:53.966Z,14.20
2022-08-11T20:11:45.679Z,14.10
2022-08-11T20:14:32.743Z,14.10
2022-08-11T20:17:21.517Z,14.00
2022-08-11T20:20:08.955Z,14.00
2022-08-11T20:22:54.555Z,14.00
2022-08-11T20:25:42.396Z,13.90
2022-08-11T20:28:31.976Z,13.90
2022-08-11T20:31:17.921Z,13.80
2022-08-11T20:34:05.827Z,13.70
2022-08-11T20:36:57.056Z,13.60
2022-08-11T20:39:43.897Z,13.50
2022-08-11T20:42:31.301Z,13.40
2022-08-11T20:45:23.926Z,13.40
2022-08-11T20:48:14.628Z,13.30
2022-08-11T20:51:06.240Z,13.30
2022-08-11T20:53:53.997Z,13.10
2022-08-11T20:56:41.458Z,13.00
2022-08-11T20:59:29.806Z,13.00
2022-08-11T21:02:20.104Z,12.80
2022-08-11T21:05:06.167Z,12.70
2022-08-11T21:11:06.107Z,12.50
2022-08-11T21:13:58.025Z,12.40
2022-08-11T21:16:48.887Z,12.40
2022-08-11T21:19:59.548Z,12.40
2022-08-11T21:22:59.577Z,12.30
2022-08-11T21:25:59.370Z,12.20
2022-08-11T21:28:46.998Z,12.20
2022-08-11T21:31:34.291Z,12.10
2022-08-11T21:34:21.638Z,12.00
2022-08-11T21:37:09.322Z,11.80
2022-08-11T21:39:55.986Z,11.90
2022-08-11T21:42:44.860Z,11.80
2022-08-11T21:45:32.832Z,11.80
2022-08-11T21:48:19.754Z,11.70
2022-08-11T21:51:05.723Z,11.70
2022-08-11T21:54:16.982Z,11.50
2022-08-11T21:57:04.218Z,11.40
2022-08-11T22:00:03.178Z,11.40
2022-08-11T22:02:57.286Z,11.20
2022-08-11T22:05:44.640Z,11.20
2022-08-11T22:08:31.458Z,11.40
2022-08-11T22:11:32.217Z,11.40
2022-08-11T22:14:19.500Z,11.20
2022-08-11T22:17:06.901Z,11.00
2022-08-11T22:19:54.543Z,10.90
2022-08-11T22:22:51.133Z,10.90
2022-08-11T22:25:51.675Z,10.90
2022-08-11T22:28:41.556Z,10.90
2022-08-11T22:31:29.793Z,10.80
2022-08-11T22:34:20.256Z,10.80
2022-08-11T22:37:08.100Z,10.80
2022-08-11T22:40:02.080Z,10.70
2022-08-11T22:42:49.390Z,10.70
2022-08-11T22:45:35.579Z,10.60
2022-08-11T22:48:24.537Z,10.60
2022-08-11T22:51:13.586Z,10.60
2022-08-11T22:54:00.545Z,10.50
2022-08-11T22:56:48.726Z,10.40
2022-08-11T22:59:36.403Z,10.30
2022-08-11T23:02:23.618Z,10.30
2022-08-11T23:05:10.395Z,10.30
2022-08-11T23:07:59.837Z,10.20
2022-08-11T23:10:46.000Z,10.10
2022-08-11T23:13:32.680Z,10.10
2022-08-11T23:16:19.392Z,10.10
2022-08-11T23:19:07.066Z,10.10
2022-08-11T23:21:54.689Z,10.00
2022-08-11T23:24:44.473Z,10.00
2022-08-11T23:27:32.607Z,10.00
2022-08-11T23:30:20.606Z,9.80
2022-08-11T23:33:11.274Z,9.80
2022-08-11T23:36:03.592Z,9.80
2022-08-11T23:38:50.738Z,9.90
2022-08-11T23:41:38.625Z,9.90
2022-08-11T23:44:25.613Z,9.80
2022-08-11T23:47:14.755Z,9.70
2022-08-11T23:50:01.152Z,9.70
2022-08-11T23:52:47.852Z,9.60
2022-08-11T23:55:33.398Z,9.50
2022-08-11T23:58:21.058Z,9.50
